sensor_id;sensor_type;location;lat;lon;timestamp;temperature;humidity
65598;SHT31;52267;51.984;20.956;2023-06-22T00:01:20;19.17;83.64
65598;SHT31;52267;51.984;20.956;2023-06-22T00:03:49;19.17;83.53
65598;SHT31;52267;51.984;20.956;2023-06-22T00:06:16;19.15;83.56
65598;SHT31;52267;51.984;20.956;2023-06-22T00:08:43;19.10;83.59
65598;SHT31;52267;51.984;20.956;2023-06-22T00:11:10;19.04;83.66
65598;SHT31;52267;51.984;20.956;2023-06-22T00:13:37;19.01;83.68
65598;SHT31;52267;51.984;20.956;2023-06-22T00:16:05;18.99;83.63
65598;SHT31;52267;51.984;20.956;2023-06-22T00:18:32;18.96;83.68
65598;SHT31;52267;51.984;20.956;2023-06-22T00:21:00;18.93;83.73
65598;SHT31;52267;51.984;20.956;2023-06-22T00:23:27;18.88;83.70
65598;SHT31;52267;51.984;20.956;2023-06-22T00:25:54;18.88;83.65
65598;SHT31;52267;51.984;20.956;2023-06-22T00:28:21;18.85;83.51
65598;SHT31;52267;51.984;20.956;2023-06-22T00:30:48;18.81;83.54
65598;SHT31;52267;51.984;20.956;2023-06-22T00:33:16;18.78;83.60
65598;SHT31;52267;51.984;20.956;2023-06-22T00:35:43;18.76;83.60
65598;SHT31;52267;51.984;20.956;2023-06-22T00:38:10;18.75;83.47
65598;SHT31;52267;51.984;20.956;2023-06-22T00:40:38;18.71;83.40
65598;SHT31;52267;51.984;20.956;2023-06-22T00:43:05;18.68;83.51
65598;SHT31;52267;51.984;20.956;2023-06-22T00:45:32;18.63;83.61
65598;SHT31;52267;51.984;20.956;2023-06-22T00:48:00;18.59;83.66
65598;SHT31;52267;51.984;20.956;2023-06-22T00:50:29;18.58;83.62
65598;SHT31;52267;51.984;20.956;2023-06-22T00:53:10;18.55;83.64
65598;SHT31;52267;51.984;20.956;2023-06-22T00:55:38;18.51;83.71
65598;SHT31;52267;51.984;20.956;2023-06-22T00:58:13;18.50;83.66
65598;SHT31;52267;51.984;20.956;2023-06-22T01:00:40;18.48;83.61
65598;SHT31;52267;51.984;20.956;2023-06-22T01:03:08;18.42;83.71
65598;SHT31;52267;51.984;20.956;2023-06-22T01:05:36;18.34;84.03
65598;SHT31;52267;51.984;20.956;2023-06-22T01:11:08;18.20;84.45
65598;SHT31;52267;51.984;20.956;2023-06-22T01:16:23;18.09;84.87
65598;SHT31;52267;51.984;20.956;2023-06-22T01:19:00;18.11;84.66
65598;SHT31;52267;51.984;20.956;2023-06-22T01:21:41;18.09;84.64
65598;SHT31;52267;51.984;20.956;2023-06-22T01:24:31;18.11;84.58
65598;SHT31;52267;51.984;20.956;2023-06-22T01:27:32;18.07;84.91
65598;SHT31;52267;51.984;20.956;2023-06-22T01:30:12;18.04;84.97
65598;SHT31;52267;51.984;20.956;2023-06-22T01:32:42;18.05;84.78
65598;SHT31;52267;51.984;20.956;2023-06-22T01:35:10;18.05;84.66
65598;SHT31;52267;51.984;20.956;2023-06-22T01:37:38;18.05;84.61
65598;SHT31;52267;51.984;20.956;2023-06-22T01:40:06;18.04;84.66
65598;SHT31;52267;51.984;20.956;2023-06-22T01:42:35;18.01;84.84
65598;SHT31;52267;51.984;20.956;2023-06-22T01:45:04;17.99;85.27
65598;SHT31;52267;51.984;20.956;2023-06-22T01:47:33;17.99;85.08
65598;SHT31;52267;51.984;20.956;2023-06-22T01:50:00;17.99;85.02
65598;SHT31;52267;51.984;20.956;2023-06-22T01:52:28;18.01;84.92
65598;SHT31;52267;51.984;20.956;2023-06-22T01:54:55;18.03;84.81
65598;SHT31;52267;51.984;20.956;2023-06-22T01:57:24;18.08;84.72
65598;SHT31;52267;51.984;20.956;2023-06-22T02:02:27;18.12;84.85
65598;SHT31;52267;51.984;20.956;2023-06-22T02:05:20;18.10;85.03
65598;SHT31;52267;51.984;20.956;2023-06-22T02:07:56;18.10;84.91
65598;SHT31;52267;51.984;20.956;2023-06-22T02:10:36;18.11;84.94
65598;SHT31;52267;51.984;20.956;2023-06-22T02:13:07;18.10;84.95
65598;SHT31;52267;51.984;20.956;2023-06-22T02:15:36;18.13;84.91
65598;SHT31;52267;51.984;20.956;2023-06-22T02:18:04;18.12;84.86
65598;SHT31;52267;51.984;20.956;2023-06-22T02:20:31;18.12;84.76
65598;SHT31;52267;51.984;20.956;2023-06-22T02:22:58;18.13;84.73
65598;SHT31;52267;51.984;20.956;2023-06-22T02:25:25;18.14;84.77
65598;SHT31;52267;51.984;20.956;2023-06-22T02:27:52;18.10;84.82
65598;SHT31;52267;51.984;20.956;2023-06-22T02:30:19;18.09;84.90
65598;SHT31;52267;51.984;20.956;2023-06-22T02:32:47;18.09;84.90
65598;SHT31;52267;51.984;20.956;2023-06-22T02:35:14;18.09;85.11
65598;SHT31;52267;51.984;20.956;2023-06-22T02:37:41;18.05;85.40
65598;SHT31;52267;51.984;20.956;2023-06-22T02:40:08;18.04;85.51
65598;SHT31;52267;51.984;20.956;2023-06-22T02:42:36;18.01;85.47
65598;SHT31;52267;51.984;20.956;2023-06-22T02:45:04;18.03;85.40
65598;SHT31;52267;51.984;20.956;2023-06-22T02:47:32;18.06;85.31
65598;SHT31;52267;51.984;20.956;2023-06-22T02:49:58;18.08;85.29
65598;SHT31;52267;51.984;20.956;2023-06-22T02:52:26;18.09;85.29
65598;SHT31;52267;51.984;20.956;2023-06-22T02:54:53;18.12;85.18
65598;SHT31;52267;51.984;20.956;2023-06-22T02:57:20;18.17;85.06
65598;SHT31;52267;51.984;20.956;2023-06-22T02:59:47;18.19;85.09
65598;SHT31;52267;51.984;20.956;2023-06-22T03:02:14;18.24;85.07
65598;SHT31;52267;51.984;20.956;2023-06-22T03:04:41;18.33;85.39
65598;SHT31;52267;51.984;20.956;2023-06-22T03:07:10;18.38;85.41
65598;SHT31;52267;51.984;20.956;2023-06-22T03:09:37;18.45;85.55
65598;SHT31;52267;51.984;20.956;2023-06-22T03:12:04;18.51;85.79
65598;SHT31;52267;51.984;20.956;2023-06-22T03:14:31;18.58;85.94
65598;SHT31;52267;51.984;20.956;2023-06-22T03:16:58;18.66;86.17
65598;SHT31;52267;51.984;20.956;2023-06-22T03:19:29;18.73;86.18
65598;SHT31;52267;51.984;20.956;2023-06-22T03:21:59;18.82;86.25
65598;SHT31;52267;51.984;20.956;2023-06-22T03:24:26;18.90;86.34
65598;SHT31;52267;51.984;20.956;2023-06-22T03:26:56;18.98;86.40
65598;SHT31;52267;51.984;20.956;2023-06-22T03:29:23;19.07;86.58
65598;SHT31;52267;51.984;20.956;2023-06-22T03:31:51;19.14;86.62
65598;SHT31;52267;51.984;20.956;2023-06-22T03:34:18;19.22;86.62
65598;SHT31;52267;51.984;20.956;2023-06-22T03:36:45;19.31;86.75
65598;SHT31;52267;51.984;20.956;2023-06-22T03:39:12;19.38;86.86
65598;SHT31;52267;51.984;20.956;2023-06-22T03:41:39;19.47;86.87
65598;SHT31;52267;51.984;20.956;2023-06-22T03:44:06;19.56;86.96
65598;SHT31;52267;51.984;20.956;2023-06-22T03:46:36;19.63;87.03
65598;SHT31;52267;51.984;20.956;2023-06-22T03:49:04;19.69;87.30
65598;SHT31;52267;51.984;20.956;2023-06-22T03:51:32;19.75;87.62
65598;SHT31;52267;51.984;20.956;2023-06-22T03:53:59;19.81;87.64
65598;SHT31;52267;51.984;20.956;2023-06-22T03:56:26;19.87;87.45
65598;SHT31;52267;51.984;20.956;2023-06-22T03:58:53;19.93;87.50
65598;SHT31;52267;51.984;20.956;2023-06-22T04:01:20;19.99;87.54
65598;SHT31;52267;51.984;20.956;2023-06-22T04:03:47;20.04;87.53
65598;SHT31;52267;51.984;20.956;2023-06-22T04:06:15;20.08;87.59
65598;SHT31;52267;51.984;20.956;2023-06-22T04:08:44;20.13;87.71
65598;SHT31;52267;51.984;20.956;2023-06-22T04:11:17;20.17;87.45
65598;SHT31;52267;51.984;20.956;2023-06-22T04:13:44;20.19;87.48
65598;SHT31;52267;51.984;20.956;2023-06-22T04:16:12;20.24;87.58
65598;SHT31;52267;51.984;20.956;2023-06-22T04:18:39;20.25;87.55
65598;SHT31;52267;51.984;20.956;2023-06-22T04:21:06;20.29;87.56
65598;SHT31;52267;51.984;20.956;2023-06-22T04:23:36;20.33;87.58
65598;SHT31;52267;51.984;20.956;2023-06-22T04:26:03;20.37;87.43
65598;SHT31;52267;51.984;20.956;2023-06-22T04:28:30;20.41;87.52
65598;SHT31;52267;51.984;20.956;2023-06-22T04:31:01;20.45;87.57
65598;SHT31;52267;51.984;20.956;2023-06-22T04:33:29;20.51;87.41
65598;SHT31;52267;51.984;20.956;2023-06-22T04:35:57;20.56;87.44
65598;SHT31;52267;51.984;20.956;2023-06-22T04:38:27;20.59;87.25
65598;SHT31;52267;51.984;20.956;2023-06-22T04:40:54;20.63;87.14
65598;SHT31;52267;51.984;20.956;2023-06-22T04:43:21;20.66;87.22
65598;SHT31;52267;51.984;20.956;2023-06-22T04:45:48;20.69;87.15
65598;SHT31;52267;51.984;20.956;2023-06-22T04:48:18;20.73;87.15
65598;SHT31;52267;51.984;20.956;2023-06-22T04:50:45;20.77;87.19
65598;SHT31;52267;51.984;20.956;2023-06-22T04:53:12;20.79;87.15
65598;SHT31;52267;51.984;20.956;2023-06-22T04:55:40;20.79;87.06
65598;SHT31;52267;51.984;20.956;2023-06-22T04:58:08;20.80;86.99
65598;SHT31;52267;51.984;20.956;2023-06-22T05:00:35;20.82;86.90
65598;SHT31;52267;51.984;20.956;2023-06-22T05:03:05;20.86;86.84
65598;SHT31;52267;51.984;20.956;2023-06-22T05:05:33;20.90;86.75
65598;SHT31;52267;51.984;20.956;2023-06-22T05:08:00;20.94;86.57
65598;SHT31;52267;51.984;20.956;2023-06-22T05:10:28;20.97;86.56
65598;SHT31;52267;51.984;20.956;2023-06-22T05:12:55;21.02;86.43
65598;SHT31;52267;51.984;20.956;2023-06-22T05:15:22;21.06;86.34
65598;SHT31;52267;51.984;20.956;2023-06-22T05:17:53;21.09;86.30
65598;SHT31;52267;51.984;20.956;2023-06-22T05:20:20;21.12;86.19
65598;SHT31;52267;51.984;20.956;2023-06-22T05:22:49;21.13;86.18
65598;SHT31;52267;51.984;20.956;2023-06-22T05:25:16;21.17;86.14
65598;SHT31;52267;51.984;20.956;2023-06-22T05:27:43;21.21;85.95
65598;SHT31;52267;51.984;20.956;2023-06-22T05:30:10;21.23;85.90
65598;SHT31;52267;51.984;20.956;2023-06-22T05:32:38;21.24;85.83
65598;SHT31;52267;51.984;20.956;2023-06-22T05:35:05;21.28;85.74
65598;SHT31;52267;51.984;20.956;2023-06-22T05:37:33;21.31;85.60
65598;SHT31;52267;51.984;20.956;2023-06-22T05:40:00;21.31;85.64
65598;SHT31;52267;51.984;20.956;2023-06-22T05:42:28;21.33;85.56
65598;SHT31;52267;51.984;20.956;2023-06-22T05:44:55;21.36;85.49
65598;SHT31;52267;51.984;20.956;2023-06-22T05:47:22;21.38;85.40
65598;SHT31;52267;51.984;20.956;2023-06-22T05:49:49;21.38;85.25
65598;SHT31;52267;51.984;20.956;2023-06-22T05:52:16;21.39;85.26
65598;SHT31;52267;51.984;20.956;2023-06-22T05:54:43;21.41;85.31
65598;SHT31;52267;51.984;20.956;2023-06-22T05:57:10;21.41;85.20
65598;SHT31;52267;51.984;20.956;2023-06-22T05:59:38;21.43;85.19
65598;SHT31;52267;51.984;20.956;2023-06-22T06:02:05;21.48;85.16
65598;SHT31;52267;51.984;20.956;2023-06-22T06:04:32;21.50;85.12
65598;SHT31;52267;51.984;20.956;2023-06-22T06:06:59;21.55;85.01
65598;SHT31;52267;51.984;20.956;2023-06-22T06:09:26;21.58;84.87
65598;SHT31;52267;51.984;20.956;2023-06-22T06:11:53;21.60;84.81
65598;SHT31;52267;51.984;20.956;2023-06-22T06:14:20;21.59;84.72
65598;SHT31;52267;51.984;20.956;2023-06-22T06:16:48;21.62;84.60
65598;SHT31;52267;51.984;20.956;2023-06-22T06:19:16;21.67;84.50
65598;SHT31;52267;51.984;20.956;2023-06-22T06:21:43;21.68;84.32
65598;SHT31;52267;51.984;20.956;2023-06-22T06:24:10;21.71;84.20
65598;SHT31;52267;51.984;20.956;2023-06-22T06:26:38;21.77;84.10
65598;SHT31;52267;51.984;20.956;2023-06-22T06:29:05;21.81;83.97
65598;SHT31;52267;51.984;20.956;2023-06-22T06:31:32;21.85;83.96
65598;SHT31;52267;51.984;20.956;2023-06-22T06:33:59;21.92;83.85
65598;SHT31;52267;51.984;20.956;2023-06-22T06:36:26;22.01;83.73
65598;SHT31;52267;51.984;20.956;2023-06-22T06:38:53;22.10;83.56
65598;SHT31;52267;51.984;20.956;2023-06-22T06:41:20;22.18;83.28
65598;SHT31;52267;51.984;20.956;2023-06-22T06:43:47;22.22;83.08
65598;SHT31;52267;51.984;20.956;2023-06-22T06:46:15;22.33;82.93
65598;SHT31;52267;51.984;20.956;2023-06-22T06:48:42;22.43;82.58
65598;SHT31;52267;51.984;20.956;2023-06-22T06:51:09;22.52;82.37
65598;SHT31;52267;51.984;20.956;2023-06-22T06:53:37;22.62;82.38
65598;SHT31;52267;51.984;20.956;2023-06-22T06:56:04;22.68;82.00
65598;SHT31;52267;51.984;20.956;2023-06-22T06:58:31;22.70;81.65
65598;SHT31;52267;51.984;20.956;2023-06-22T07:00:59;22.82;81.43
65598;SHT31;52267;51.984;20.956;2023-06-22T07:03:26;23.08;81.15
65598;SHT31;52267;51.984;20.956;2023-06-22T07:05:53;23.39;80.76
65598;SHT31;52267;51.984;20.956;2023-06-22T07:08:20;23.52;79.80
65598;SHT31;52267;51.984;20.956;2023-06-22T07:10:47;23.59;79.48
65598;SHT31;52267;51.984;20.956;2023-06-22T07:13:14;23.75;79.32
65598;SHT31;52267;51.984;20.956;2023-06-22T07:15:41;23.98;78.39
65598;SHT31;52267;51.984;20.956;2023-06-22T07:18:09;24.22;77.90
65598;SHT31;52267;51.984;20.956;2023-06-22T07:20:36;24.42;77.22
65598;SHT31;52267;51.984;20.956;2023-06-22T07:23:07;24.59;75.91
65598;SHT31;52267;51.984;20.956;2023-06-22T07:25:34;24.78;75.60
65598;SHT31;52267;51.984;20.956;2023-06-22T07:28:02;24.98;75.42
65598;SHT31;52267;51.984;20.956;2023-06-22T07:30:31;25.18;74.63
65598;SHT31;52267;51.984;20.956;2023-06-22T07:33:00;25.33;74.30
65598;SHT31;52267;51.984;20.956;2023-06-22T07:35:29;25.53;72.91
65598;SHT31;52267;51.984;20.956;2023-06-22T07:37:57;25.69;72.44
65598;SHT31;52267;51.984;20.956;2023-06-22T07:40:25;25.89;72.47
65598;SHT31;52267;51.984;20.956;2023-06-22T07:42:52;26.06;71.78
65598;SHT31;52267;51.984;20.956;2023-06-22T07:45:20;26.24;71.32
65598;SHT31;52267;51.984;20.956;2023-06-22T07:47:47;26.42;70.93
65598;SHT31;52267;51.984;20.956;2023-06-22T07:50:14;26.50;70.31
65598;SHT31;52267;51.984;20.956;2023-06-22T07:52:41;26.59;69.97
65598;SHT31;52267;51.984;20.956;2023-06-22T07:55:08;26.71;68.45
65598;SHT31;52267;51.984;20.956;2023-06-22T07:57:35;26.77;67.14
65598;SHT31;52267;51.984;20.956;2023-06-22T08:00:03;26.88;66.48
65598;SHT31;52267;51.984;20.956;2023-06-22T08:02:44;26.87;64.75
65598;SHT31;52267;51.984;20.956;2023-06-22T08:05:13;26.96;65.42
65598;SHT31;52267;51.984;20.956;2023-06-22T08:07:41;27.01;63.96
65598;SHT31;52267;51.984;20.956;2023-06-22T08:10:10;27.05;63.75
65598;SHT31;52267;51.984;20.956;2023-06-22T08:12:39;27.16;62.59
65598;SHT31;52267;51.984;20.956;2023-06-22T08:15:07;27.34;63.45
65598;SHT31;52267;51.984;20.956;2023-06-22T08:17:38;27.47;63.55
65598;SHT31;52267;51.984;20.956;2023-06-22T08:20:06;27.66;63.43
65598;SHT31;52267;51.984;20.956;2023-06-22T08:22:40;27.81;61.95
65598;SHT31;52267;51.984;20.956;2023-06-22T08:25:10;27.89;61.65
65598;SHT31;52267;51.984;20.956;2023-06-22T08:27:38;28.02;61.34
65598;SHT31;52267;51.984;20.956;2023-06-22T08:30:06;28.13;59.91
65598;SHT31;52267;51.984;20.956;2023-06-22T08:32:34;28.26;58.96
65598;SHT31;52267;51.984;20.956;2023-06-22T08:35:01;28.41;58.21
65598;SHT31;52267;51.984;20.956;2023-06-22T08:37:28;28.55;58.54
65598;SHT31;52267;51.984;20.956;2023-06-22T08:40:02;28.70;57.34
65598;SHT31;52267;51.984;20.956;2023-06-22T08:42:32;28.83;56.59
65598;SHT31;52267;51.984;20.956;2023-06-22T08:44:59;28.99;57.68
65598;SHT31;52267;51.984;20.956;2023-06-22T08:47:27;29.10;56.09
65598;SHT31;52267;51.984;20.956;2023-06-22T08:49:55;29.17;56.42
65598;SHT31;52267;51.984;20.956;2023-06-22T08:52:22;29.37;55.85
65598;SHT31;52267;51.984;20.956;2023-06-22T08:54:50;29.42;54.60
65598;SHT31;52267;51.984;20.956;2023-06-22T08:57:17;29.36;53.24
65598;SHT31;52267;51.984;20.956;2023-06-22T08:59:45;29.39;53.29
65598;SHT31;52267;51.984;20.956;2023-06-22T09:02:12;29.43;53.02
65598;SHT31;52267;51.984;20.956;2023-06-22T09:04:39;29.62;53.15
65598;SHT31;52267;51.984;20.956;2023-06-22T09:07:06;29.75;52.77
65598;SHT31;52267;51.984;20.956;2023-06-22T09:09:33;29.73;51.70
65598;SHT31;52267;51.984;20.956;2023-06-22T09:12:00;29.72;51.51
65598;SHT31;52267;51.984;20.956;2023-06-22T09:14:27;29.68;51.07
65598;SHT31;52267;51.984;20.956;2023-06-22T09:16:54;29.67;51.02
65598;SHT31;52267;51.984;20.956;2023-06-22T09:19:21;29.85;51.63
65598;SHT31;52267;51.984;20.956;2023-06-22T09:21:49;29.97;49.81
65598;SHT31;52267;51.984;20.956;2023-06-22T09:24:16;30.13;49.18
65598;SHT31;52267;51.984;20.956;2023-06-22T09:26:43;30.23;48.95
65598;SHT31;52267;51.984;20.956;2023-06-22T09:29:10;30.28;49.04
65598;SHT31;52267;51.984;20.956;2023-06-22T09:31:37;30.48;48.71
65598;SHT31;52267;51.984;20.956;2023-06-22T09:34:04;30.65;48.67
65598;SHT31;52267;51.984;20.956;2023-06-22T09:36:31;30.78;48.35
65598;SHT31;52267;51.984;20.956;2023-06-22T09:38:58;30.97;48.66
65598;SHT31;52267;51.984;20.956;2023-06-22T09:41:28;31.17;48.25
65598;SHT31;52267;51.984;20.956;2023-06-22T09:43:55;31.31;48.08
65598;SHT31;52267;51.984;20.956;2023-06-22T09:46:22;31.36;47.13
65598;SHT31;52267;51.984;20.956;2023-06-22T09:48:51;31.24;45.93
65598;SHT31;52267;51.984;20.956;2023-06-22T09:51:19;31.30;47.09
65598;SHT31;52267;51.984;20.956;2023-06-22T09:53:50;31.44;46.96
65598;SHT31;52267;51.984;20.956;2023-06-22T10:03:07;31.38;45.56
65598;SHT31;52267;51.984;20.956;2023-06-22T10:05:35;31.38;45.15
65598;SHT31;52267;51.984;20.956;2023-06-22T10:08:03;31.44;45.28
65598;SHT31;52267;51.984;20.956;2023-06-22T10:10:30;31.46;45.14
65598;SHT31;52267;51.984;20.956;2023-06-22T10:13:02;31.49;43.40
65598;SHT31;52267;51.984;20.956;2023-06-22T10:15:38;31.40;42.89
65598;SHT31;52267;51.984;20.956;2023-06-22T10:18:05;31.48;43.12
65598;SHT31;52267;51.984;20.956;2023-06-22T10:20:32;31.51;41.84
65598;SHT31;52267;51.984;20.956;2023-06-22T10:23:00;31.56;40.64
65598;SHT31;52267;51.984;20.956;2023-06-22T10:25:27;31.57;41.44
65598;SHT31;52267;51.984;20.956;2023-06-22T10:27:54;31.60;40.64
65598;SHT31;52267;51.984;20.956;2023-06-22T10:30:21;31.62;41.08
65598;SHT31;52267;51.984;20.956;2023-06-22T10:32:48;31.63;40.98
65598;SHT31;52267;51.984;20.956;2023-06-22T10:35:16;31.70;41.19
65598;SHT31;52267;51.984;20.956;2023-06-22T10:37:43;31.84;41.19
65598;SHT31;52267;51.984;20.956;2023-06-22T10:40:15;31.82;41.21
65598;SHT31;52267;51.984;20.956;2023-06-22T10:42:45;31.96;41.04
65598;SHT31;52267;51.984;20.956;2023-06-22T10:45:12;32.06;40.70
65598;SHT31;52267;51.984;20.956;2023-06-22T10:47:40;31.97;39.76
65598;SHT31;52267;51.984;20.956;2023-06-22T10:50:08;31.83;40.12
65598;SHT31;52267;51.984;20.956;2023-06-22T10:52:36;31.73;40.19
65598;SHT31;52267;51.984;20.956;2023-06-22T10:55:03;31.71;39.59
65598;SHT31;52267;51.984;20.956;2023-06-22T10:57:31;31.64;39.02
65598;SHT31;52267;51.984;20.956;2023-06-22T10:59:58;31.71;39.08
65598;SHT31;52267;51.984;20.956;2023-06-22T11:02:26;31.81;39.45
65598;SHT31;52267;51.984;20.956;2023-06-22T11:04:54;31.94;40.00
65598;SHT31;52267;51.984;20.956;2023-06-22T11:07:22;32.10;40.55
65598;SHT31;52267;51.984;20.956;2023-06-22T11:09:48;32.19;40.18
65598;SHT31;52267;51.984;20.956;2023-06-22T11:12:16;32.27;40.26
65598;SHT31;52267;51.984;20.956;2023-06-22T11:14:43;32.35;39.69
65598;SHT31;52267;51.984;20.956;2023-06-22T11:17:10;32.43;40.23
65598;SHT31;52267;51.984;20.956;2023-06-22T11:19:37;32.46;39.85
65598;SHT31;52267;51.984;20.956;2023-06-22T11:22:04;32.54;40.03
65598;SHT31;52267;51.984;20.956;2023-06-22T11:24:32;32.44;39.45
65598;SHT31;52267;51.984;20.956;2023-06-22T11:26:59;32.24;39.12
65598;SHT31;52267;51.984;20.956;2023-06-22T11:29:26;32.14;39.73
65598;SHT31;52267;51.984;20.956;2023-06-22T11:31:53;32.21;40.06
65598;SHT31;52267;51.984;20.956;2023-06-22T11:34:20;32.26;40.01
65598;SHT31;52267;51.984;20.956;2023-06-22T11:36:47;32.37;39.89
65598;SHT31;52267;51.984;20.956;2023-06-22T11:39:14;32.40;39.45
65598;SHT31;52267;51.984;20.956;2023-06-22T11:41:41;32.31;37.75
65598;SHT31;52267;51.984;20.956;2023-06-22T11:44:09;32.34;38.38
65598;SHT31;52267;51.984;20.956;2023-06-22T11:46:36;32.27;38.14
65598;SHT31;52267;51.984;20.956;2023-06-22T11:49:03;32.25;38.51
65598;SHT31;52267;51.984;20.956;2023-06-22T11:51:30;32.05;38.11
65598;SHT31;52267;51.984;20.956;2023-06-22T11:53:58;31.97;39.05
65598;SHT31;52267;51.984;20.956;2023-06-22T11:56:25;32.08;39.46
65598;SHT31;52267;51.984;20.956;2023-06-22T11:58:54;32.06;39.52
65598;SHT31;52267;51.984;20.956;2023-06-22T12:01:21;32.16;39.81
65598;SHT31;52267;51.984;20.956;2023-06-22T12:03:48;32.29;39.48
65598;SHT31;52267;51.984;20.956;2023-06-22T12:06:15;32.26;39.00
65598;SHT31;52267;51.984;20.956;2023-06-22T12:08:42;32.20;38.85
65598;SHT31;52267;51.984;20.956;2023-06-22T12:11:09;32.36;39.39
65598;SHT31;52267;51.984;20.956;2023-06-22T12:13:36;32.46;39.03
65598;SHT31;52267;51.984;20.956;2023-06-22T12:16:03;32.56;39.11
65598;SHT31;52267;51.984;20.956;2023-06-22T12:18:32;32.65;38.07
65598;SHT31;52267;51.984;20.956;2023-06-22T12:20:59;32.79;39.02
65598;SHT31;52267;51.984;20.956;2023-06-22T12:23:26;32.97;39.19
65598;SHT31;52267;51.984;20.956;2023-06-22T12:25:53;33.00;38.44
65598;SHT31;52267;51.984;20.956;2023-06-22T12:28:21;32.89;38.53
65598;SHT31;52267;51.984;20.956;2023-06-22T12:30:49;32.85;38.94
65598;SHT31;52267;51.984;20.956;2023-06-22T12:33:17;32.92;38.89
65598;SHT31;52267;51.984;20.956;2023-06-22T12:35:44;33.01;39.03
65598;SHT31;52267;51.984;20.956;2023-06-22T12:38:12;33.13;39.24
65598;SHT31;52267;51.984;20.956;2023-06-22T12:40:39;33.27;39.06
65598;SHT31;52267;51.984;20.956;2023-06-22T12:43:06;33.25;38.43
65598;SHT31;52267;51.984;20.956;2023-06-22T12:45:34;33.23;38.48
65598;SHT31;52267;51.984;20.956;2023-06-22T12:48:01;33.24;38.44
65598;SHT31;52267;51.984;20.956;2023-06-22T12:50:28;33.26;38.88
65598;SHT31;52267;51.984;20.956;2023-06-22T12:52:55;33.28;38.50
65598;SHT31;52267;51.984;20.956;2023-06-22T12:55:22;33.24;38.53
65598;SHT31;52267;51.984;20.956;2023-06-22T12:57:49;33.18;38.01
65598;SHT31;52267;51.984;20.956;2023-06-22T13:00:16;33.13;38.11
65598;SHT31;52267;51.984;20.956;2023-06-22T13:02:45;33.07;38.06
65598;SHT31;52267;51.984;20.956;2023-06-22T13:05:12;33.03;37.68
65598;SHT31;52267;51.984;20.956;2023-06-22T13:07:39;33.13;37.72
65598;SHT31;52267;51.984;20.956;2023-06-22T13:10:06;33.15;37.53
65598;SHT31;52267;51.984;20.956;2023-06-22T13:12:34;33.00;37.60
65598;SHT31;52267;51.984;20.956;2023-06-22T13:15:01;33.03;38.60
65598;SHT31;52267;51.984;20.956;2023-06-22T13:17:29;33.18;38.73
65598;SHT31;52267;51.984;20.956;2023-06-22T13:19:57;33.34;38.59
65598;SHT31;52267;51.984;20.956;2023-06-22T13:22:28;33.35;38.05
65598;SHT31;52267;51.984;20.956;2023-06-22T13:24:58;33.26;37.57
65598;SHT31;52267;51.984;20.956;2023-06-22T13:27:26;33.12;37.57
65598;SHT31;52267;51.984;20.956;2023-06-22T13:29:53;32.99;37.56
65598;SHT31;52267;51.984;20.956;2023-06-22T13:32:20;33.04;37.14
65598;SHT31;52267;51.984;20.956;2023-06-22T13:34:48;33.01;36.94
65598;SHT31;52267;51.984;20.956;2023-06-22T13:37:15;33.05;36.72
65598;SHT31;52267;51.984;20.956;2023-06-22T13:39:42;33.09;37.12
65598;SHT31;52267;51.984;20.956;2023-06-22T13:42:09;33.06;37.09
65598;SHT31;52267;51.984;20.956;2023-06-22T13:44:36;32.94;37.10
65598;SHT31;52267;51.984;20.956;2023-06-22T13:47:04;32.80;37.70
65598;SHT31;52267;51.984;20.956;2023-06-22T13:49:31;32.87;38.16
65598;SHT31;52267;51.984;20.956;2023-06-22T13:51:58;33.02;38.22
65598;SHT31;52267;51.984;20.956;2023-06-22T13:54:26;33.13;37.93
65598;SHT31;52267;51.984;20.956;2023-06-22T13:56:53;33.07;37.51
65598;SHT31;52267;51.984;20.956;2023-06-22T13:59:21;32.90;38.03
65598;SHT31;52267;51.984;20.956;2023-06-22T14:01:48;32.92;38.12
65598;SHT31;52267;51.984;20.956;2023-06-22T14:04:15;33.00;38.09
65598;SHT31;52267;51.984;20.956;2023-06-22T14:06:42;33.01;37.95
65598;SHT31;52267;51.984;20.956;2023-06-22T14:09:09;32.96;37.51
65598;SHT31;52267;51.984;20.956;2023-06-22T14:11:36;32.88;37.32
65598;SHT31;52267;51.984;20.956;2023-06-22T14:14:04;32.86;37.52
65598;SHT31;52267;51.984;20.956;2023-06-22T14:16:31;32.89;37.90
65598;SHT31;52267;51.984;20.956;2023-06-22T14:18:58;32.93;37.53
65598;SHT31;52267;51.984;20.956;2023-06-22T14:21:25;32.91;37.69
65598;SHT31;52267;51.984;20.956;2023-06-22T14:23:53;32.96;37.76
65598;SHT31;52267;51.984;20.956;2023-06-22T14:26:20;32.91;37.71
65598;SHT31;52267;51.984;20.956;2023-06-22T14:28:48;32.86;38.03
65598;SHT31;52267;51.984;20.956;2023-06-22T14:31:18;32.84;37.84
65598;SHT31;52267;51.984;20.956;2023-06-22T14:33:47;32.76;38.02
65598;SHT31;52267;51.984;20.956;2023-06-22T14:36:15;32.69;38.39
65598;SHT31;52267;51.984;20.956;2023-06-22T14:38:46;32.75;38.72
65598;SHT31;52267;51.984;20.956;2023-06-22T14:41:13;32.70;38.96
65598;SHT31;52267;51.984;20.956;2023-06-22T14:43:44;32.62;38.76
65598;SHT31;52267;51.984;20.956;2023-06-22T14:46:17;32.55;38.90
65598;SHT31;52267;51.984;20.956;2023-06-22T14:48:45;32.45;38.92
65598;SHT31;52267;51.984;20.956;2023-06-22T14:51:13;32.36;38.90
65598;SHT31;52267;51.984;20.956;2023-06-22T14:53:40;32.21;38.81
65598;SHT31;52267;51.984;20.956;2023-06-22T14:56:08;31.95;38.99
65598;SHT31;52267;51.984;20.956;2023-06-22T14:58:36;31.78;39.39
65598;SHT31;52267;51.984;20.956;2023-06-22T15:01:03;31.83;39.72
65598;SHT31;52267;51.984;20.956;2023-06-22T15:03:30;31.89;39.90
65598;SHT31;52267;51.984;20.956;2023-06-22T15:05:58;31.82;39.51
65598;SHT31;52267;51.984;20.956;2023-06-22T15:08:26;31.66;39.58
65598;SHT31;52267;51.984;20.956;2023-06-22T15:10:53;31.59;40.02
65598;SHT31;52267;51.984;20.956;2023-06-22T15:13:20;31.47;39.96
65598;SHT31;52267;51.984;20.956;2023-06-22T15:15:49;31.38;39.91
65598;SHT31;52267;51.984;20.956;2023-06-22T15:18:17;31.35;40.03
65598;SHT31;52267;51.984;20.956;2023-06-22T15:20:44;31.31;40.07
65598;SHT31;52267;51.984;20.956;2023-06-22T15:23:12;31.30;40.04
65598;SHT31;52267;51.984;20.956;2023-06-22T15:25:39;31.18;40.21
65598;SHT31;52267;51.984;20.956;2023-06-22T15:28:06;31.11;40.39
65598;SHT31;52267;51.984;20.956;2023-06-22T15:30:34;31.00;40.33
65598;SHT31;52267;51.984;20.956;2023-06-22T15:33:01;30.89;40.53
65598;SHT31;52267;51.984;20.956;2023-06-22T15:35:29;30.89;40.73